METAR Data
IDs: Format: Raw Decoded Include TAF

Data at: 2058 UTC 18 Sep 2018

KFIN 182050Z 20010KT 7SM CLR 27/24 A2990
KFIN 181950Z 21006G20KT 7SM BKN020 26/23 A2993
KFIN 181850Z 04007KT 7SM SCT048 29/26 A2993
KFIN 181750Z 23005KT 7SM OVC023 31/24 A2995
KFIN 181650Z 20005KT 7SM CLR 32/24 A2998
KFIN 181550Z 24005KT 7SM BKN028 31/24 A2999
KFIN 181450Z 27007KT 7SM CLR 31/25 A3000
KFIN 181350Z 26007KT 7SM SKC 29/24 A3000
KFIN 181250Z 22005KT 7SM SKC 27/24 A3000
KFIN 181150Z 00000KT 7SM SCT075 25/24 A3000
KFIN 181050Z 00000KT 7SM SCT080 24/24 A2999
KFIN 180950Z 21003KT 7SM OVC080 25/24 A2997
KFIN 180915Z AUTO 00000KT 10SM BKN080 25/24 A2997 RMK AO2 LTG DSNT NE T02500240
KFIN 180855Z AUTO 19003KT 10SM CLR 25/24 A2997 RMK AO2 LTG DSNT NE T02510240
KFIN 180835Z AUTO 20003KT 10SM SCT026 25/24 A2997 RMK AO2 LTG DSNT N THRU E T02520240
KFIN 180815Z AUTO 20003KT 10SM SCT026 SCT075 25/24 A2997 RMK AO2 LTG DSNT N T02530241
KFIN 180755Z AUTO 19004KT 10SM SCT075 26/24 A2996 RMK AO2 T02550241
KFIN 180735Z AUTO 19005KT 10SM SCT075 26/24 A2997 RMK AO2 T02570242
KFIN 180715Z AUTO 19003KT 10SM SCT075 26/24 A2997 RMK AO2 T02600243
KFIN 180655Z AUTO 17006KT 10SM OVC075 26/24 A2997 RMK AO2 LTG DSNT N T02610242
KFIN 180635Z AUTO 16003KT 10SM OVC075 26/25 A2998 RMK AO2 T02600245
KFIN 180615Z AUTO 16003KT 10SM OVC075 26/25 A2998 RMK AO2 T02600245
KFIN 180555Z AUTO 00000KT 10SM OVC075 26/25 A2999 RMK AO2 T02600246 10276 20252 403310240
KFIN 180535Z AUTO 00000KT 10SM OVC075 26/25 A3000 RMK AO2 T02580245
KFIN 180515Z AUTO 00000KT 10SM BKN075 26/24 A3000 RMK AO2 T02550242
KFIN 180455Z AUTO 00000KT 10SM CLR 26/24 A3000 RMK AO2 T02550242
KFIN 180435Z AUTO 00000KT 10SM CLR 26/24 A3000 RMK AO2 T02550242
KFIN 180415Z AUTO 00000KT 10SM CLR 26/24 A3000 RMK AO2 T02580243
KFIN 180355Z AUTO 00000KT 10SM SCT050 26/24 A3000 RMK AO2 T02610243
KFIN 180335Z AUTO 21003KT 10SM SCT050 26/24 A3000 RMK AO2 T02620243
KFIN 180315Z AUTO 23003KT 10SM SCT050 27/24 A2999 RMK AO2 T02650242
KFIN 180255Z AUTO 17003KT 10SM CLR 27/24 A2998 RMK AO2 T02670243
KFIN 180235Z AUTO 17005KT 10SM CLR 27/24 A2998 RMK AO2 T02700242
KFIN 180215Z AUTO 16005KT 10SM CLR 27/24 A2997 RMK AO2 T02690241
KFIN 180155Z AUTO 17003KT 10SM CLR 27/24 A2997 RMK AO2 T02710244
KFIN 180135Z AUTO 16004KT 10SM CLR 27/24 A2996 RMK AO2 LTG DSNT S T02730244
KFIN 180115Z AUTO 15006KT 10SM CLR 28/24 A2995 RMK AO2 T02750244
KFIN 180055Z AUTO 15005KT 10SM CLR 28/24 A2995 RMK AO2 T02750242
KFIN 180035Z AUTO 14005KT 10SM CLR 28/25 A2994 RMK AO2 T02750245
KFIN 180015Z AUTO 14006KT 10SM CLR 28/24 A2994 RMK AO2 T02750242
KFIN 172355Z AUTO 13004KT 10SM CLR 28/24 A2994 RMK AO2 LTG DSNT NW T02760237 10331 20276
KFIN 172250Z 14004KT 7SM SCT046 29/23 A2994
KFIN 172150Z 13008G15KT 4SM HZ SCT050 31/23 A2993
KFIN 172050Z 12011KT 4SM HZ SCT031 32/23 A2993
KFIN 171950Z 12008KT 4SM HZ SCT031 33/23 A2994
KFIN 171850Z 11009KT 4SM HZ SCT031 32/25 A2996
KFIN 171745Z 11010KT 7SM SCT041 32/25 A2998
KFIN 171650Z 19005KT 7SM SCT037 32/23 A3000
KFIN 171550Z VRB06KT 7SM SCT031 31/24 A3001
KFIN 171450Z 24004KT 7SM SCT022 29/24 A3002
KFIN 171350Z 21004KT 7SM SKC 28/24 A3001
KFIN 171250Z 20004KT 7SM SKC 27/24 A3000
KFIN 171150Z 00000KT 7SM SKC 24/24 A2999
KFIN 171050Z 00000KT 7SM SKC 24/23 A2998
KFIN 170950Z 00000KT 7SM SKC 24/23 A2995
KFIN 170935Z AUTO 00000KT 10SM CLR 24/24 A2995 RMK AO2 T02430235
KFIN 170915Z AUTO 00000KT 10SM CLR 25/24 A2994 RMK AO2 LTG DSNT N T02450235